sensor_id;sensor_type;location;lat;lon;timestamp;pressure;altitude;pressure_sealevel;temperature;humidity
62418;BME280;48456;54.242;10.280;2023-02-28T00:01:29;103002.38;;;2.41;100.00
62418;BME280;48456;54.242;10.280;2023-02-28T00:03:56;102999.78;;;2.41;100.00
62418;BME280;48456;54.242;10.280;2023-02-28T00:06:23;103000.69;;;2.42;100.00
62418;BME280;48456;54.242;10.280;2023-02-28T00:08:50;102990.41;;;2.45;100.00
62418;BME280;48456;54.242;10.280;2023-02-28T00:11:16;102991.34;;;2.45;100.00
62418;BME280;48456;54.242;10.280;2023-02-28T00:13:44;103001.78;;;2.45;100.00
62418;BME280;48456;54.242;10.280;2023-02-28T00:16:14;102999.88;;;2.43;100.00
62418;BME280;48456;54.242;10.280;2023-02-28T00:18:41;102994.56;;;2.41;100.00
62418;BME280;48456;54.242;10.280;2023-02-28T00:21:07;102993.66;;;2.41;100.00
62418;BME280;48456;54.242;10.280;2023-02-28T00:23:34;102994.34;;;2.38;100.00
62418;BME280;48456;54.242;10.280;2023-02-28T00:26:00;102994.44;;;2.40;100.00
62418;BME280;48456;54.242;10.280;2023-02-28T00:28:27;102999.50;;;2.37;100.00
62418;BME280;48456;54.242;10.280;2023-02-28T00:30:53;102993.25;;;2.34;100.00
62418;BME280;48456;54.242;10.280;2023-02-28T00:33:20;102987.91;;;2.33;100.00
62418;BME280;48456;54.242;10.280;2023-02-28T00:35:46;102993.97;;;2.32;100.00
62418;BME280;48456;54.242;10.280;2023-02-28T00:38:13;102998.38;;;2.33;100.00
62418;BME280;48456;54.242;10.280;2023-02-28T00:40:39;102994.88;;;2.32;100.00
62418;BME280;48456;54.242;10.280;2023-02-28T00:43:06;102997.38;;;2.31;100.00
62418;BME280;48456;54.242;10.280;2023-02-28T00:45:32;103000.69;;;2.28;100.00
62418;BME280;48456;54.242;10.280;2023-02-28T00:47:58;102998.88;;;2.27;100.00
62418;BME280;48456;54.242;10.280;2023-02-28T00:50:25;103002.28;;;2.26;100.00
62418;BME280;48456;54.242;10.280;2023-02-28T00:52:51;103001.38;;;2.26;100.00
62418;BME280;48456;54.242;10.280;2023-02-28T00:55:17;103010.03;;;2.25;100.00
62418;BME280;48456;54.242;10.280;2023-02-28T00:57:44;103007.41;;;2.25;100.00
62418;BME280;48456;54.242;10.280;2023-02-28T01:00:11;103012.63;;;2.25;100.00
62418;BME280;48456;54.242;10.280;2023-02-28T01:02:37;103009.91;;;2.23;100.00
62418;BME280;48456;54.242;10.280;2023-02-28T01:05:04;103013.13;;;2.19;100.00
62418;BME280;48456;54.242;10.280;2023-02-28T01:07:30;103006.00;;;2.16;100.00
62418;BME280;48456;54.242;10.280;2023-02-28T01:09:57;103008.44;;;2.13;100.00
62418;BME280;48456;54.242;10.280;2023-02-28T01:12:23;103011.03;;;2.13;100.00
62418;BME280;48456;54.242;10.280;2023-02-28T01:14:50;103006.50;;;2.11;100.00
62418;BME280;48456;54.242;10.280;2023-02-28T01:17:16;102997.56;;;2.07;100.00
62418;BME280;48456;54.242;10.280;2023-02-28T01:19:42;103005.28;;;2.05;100.00
62418;BME280;48456;54.242;10.280;2023-02-28T01:22:09;103008.00;;;2.07;100.00
62418;BME280;48456;54.242;10.280;2023-02-28T01:24:35;102998.38;;;2.06;100.00
62418;BME280;48456;54.242;10.280;2023-02-28T01:27:01;103003.59;;;2.06;100.00
62418;BME280;48456;54.242;10.280;2023-02-28T01:29:28;102999.19;;;2.05;100.00
62418;BME280;48456;54.242;10.280;2023-02-28T01:31:54;103003.59;;;2.06;100.00
62418;BME280;48456;54.242;10.280;2023-02-28T01:34:21;103005.41;;;2.07;100.00
62418;BME280;48456;54.242;10.280;2023-02-28T01:36:47;103002.88;;;2.08;100.00
62418;BME280;48456;54.242;10.280;2023-02-28T01:39:13;102999.19;;;2.05;100.00
62418;BME280;48456;54.242;10.280;2023-02-28T01:41:40;102997.06;;;1.99;100.00
62418;BME280;48456;54.242;10.280;2023-02-28T01:44:53;102991.63;;;1.96;100.00
62418;BME280;48456;54.242;10.280;2023-02-28T01:46:53;102993.84;;;1.90;100.00
62418;BME280;48456;54.242;10.280;2023-02-28T01:49:19;102994.13;;;1.81;100.00
62418;BME280;48456;54.242;10.280;2023-02-28T01:51:49;102991.09;;;1.75;100.00
62418;BME280;48456;54.242;10.280;2023-02-28T01:54:19;102992.38;;;1.68;100.00
62418;BME280;48456;54.242;10.280;2023-02-28T01:56:52;102989.25;;;1.60;100.00
62418;BME280;48456;54.242;10.280;2023-02-28T01:59:30;102990.44;;;1.52;100.00
62418;BME280;48456;54.242;10.280;2023-02-28T02:01:59;102990.59;;;1.41;100.00
62418;BME280;48456;54.242;10.280;2023-02-28T02:04:27;103001.53;;;1.36;100.00
62418;BME280;48456;54.242;10.280;2023-02-28T02:06:57;103005.63;;;1.32;100.00
62418;BME280;48456;54.242;10.280;2023-02-28T02:09:24;102999.59;;;1.33;100.00
62418;BME280;48456;54.242;10.280;2023-02-28T02:11:50;102997.00;;;1.33;100.00
62418;BME280;48456;54.242;10.280;2023-02-28T02:34:58;102982.38;;;1.49;100.00
62418;BME280;48456;54.242;10.280;2023-02-28T02:37:38;102981.72;;;1.51;100.00
62418;BME280;48456;54.242;10.280;2023-02-28T02:40:11;102989.44;;;1.50;100.00
62418;BME280;48456;54.242;10.280;2023-02-28T02:42:50;102980.69;;;1.49;100.00
62418;BME280;48456;54.242;10.280;2023-02-28T02:45:22;102991.81;;;1.47;100.00
62418;BME280;48456;54.242;10.280;2023-02-28T02:47:50;102989.00;;;1.43;100.00
62418;BME280;48456;54.242;10.280;2023-02-28T02:50:20;102991.09;;;1.36;100.00
62418;BME280;48456;54.242;10.280;2023-02-28T02:52:48;102996.56;;;1.27;100.00
62418;BME280;48456;54.242;10.280;2023-02-28T02:55:17;103001.34;;;1.21;100.00
62418;BME280;48456;54.242;10.280;2023-02-28T03:00:11;102995.34;;;1.22;100.00
62418;BME280;48456;54.242;10.280;2023-02-28T03:02:38;102998.28;;;1.26;100.00
62418;BME280;48456;54.242;10.280;2023-02-28T03:05:08;103003.78;;;1.31;100.00
62418;BME280;48456;54.242;10.280;2023-02-28T03:07:38;103000.31;;;1.31;100.00
62418;BME280;48456;54.242;10.280;2023-02-28T03:10:25;103004.81;;;1.33;100.00
62418;BME280;48456;54.242;10.280;2023-02-28T03:12:52;103003.09;;;1.34;100.00
62418;BME280;48456;54.242;10.280;2023-02-28T03:15:23;103003.03;;;1.32;100.00
62418;BME280;48456;54.242;10.280;2023-02-28T03:18:08;103002.31;;;1.35;100.00
62418;BME280;48456;54.242;10.280;2023-02-28T03:23:23;103007.22;;;1.30;100.00
62418;BME280;48456;54.242;10.280;2023-02-28T03:25:56;103008.72;;;1.26;100.00
62418;BME280;48456;54.242;10.280;2023-02-28T03:30:53;103013.38;;;1.19;100.00
62418;BME280;48456;54.242;10.280;2023-02-28T03:33:28;103006.00;;;1.13;100.00
62418;BME280;48456;54.242;10.280;2023-02-28T03:36:03;103001.41;;;1.09;100.00
62418;BME280;48456;54.242;10.280;2023-02-28T03:38:35;103003.69;;;1.04;100.00
62418;BME280;48456;54.242;10.280;2023-02-28T03:41:06;103008.66;;;1.01;100.00
62418;BME280;48456;54.242;10.280;2023-02-28T03:43:36;103004.16;;;0.98;100.00
62418;BME280;48456;54.242;10.280;2023-02-28T03:46:05;103003.81;;;0.94;100.00
62418;BME280;48456;54.242;10.280;2023-02-28T03:48:38;103001.78;;;0.89;100.00
62418;BME280;48456;54.242;10.280;2023-02-28T03:51:06;103005.75;;;0.84;100.00
62418;BME280;48456;54.242;10.280;2023-02-28T03:53:35;102999.91;;;0.75;100.00
62418;BME280;48456;54.242;10.280;2023-02-28T03:58:36;103001.75;;;0.52;100.00
62418;BME280;48456;54.242;10.280;2023-02-28T04:01:07;103005.50;;;0.44;100.00
62418;BME280;48456;54.242;10.280;2023-02-28T04:03:36;103010.03;;;0.34;100.00
62418;BME280;48456;54.242;10.280;2023-02-28T04:06:03;103005.41;;;0.30;100.00
62418;BME280;48456;54.242;10.280;2023-02-28T04:08:30;103004.69;;;0.21;100.00
62418;BME280;48456;54.242;10.280;2023-02-28T04:13:55;103012.69;;;-0.12;100.00
62418;BME280;48456;54.242;10.280;2023-02-28T04:16:22;103009.16;;;-0.24;100.00
62418;BME280;48456;54.242;10.280;2023-02-28T04:19:01;103015.59;;;-0.31;100.00
62418;BME280;48456;54.242;10.280;2023-02-28T04:21:32;103008.34;;;-0.47;100.00
62418;BME280;48456;54.242;10.280;2023-02-28T04:24:01;103018.16;;;-0.55;100.00
62418;BME280;48456;54.242;10.280;2023-02-28T04:26:44;103012.72;;;-0.58;100.00
62418;BME280;48456;54.242;10.280;2023-02-28T04:29:12;103016.09;;;-0.59;100.00
62418;BME280;48456;54.242;10.280;2023-02-28T04:32:00;103021.72;;;-0.65;100.00
62418;BME280;48456;54.242;10.280;2023-02-28T04:34:27;103019.31;;;-0.74;100.00
62418;BME280;48456;54.242;10.280;2023-02-28T04:36:54;103025.66;;;-0.93;100.00
62418;BME280;48456;54.242;10.280;2023-02-28T04:39:37;103022.88;;;-1.06;100.00
62418;BME280;48456;54.242;10.280;2023-02-28T04:42:05;103025.66;;;-1.15;100.00
62418;BME280;48456;54.242;10.280;2023-02-28T04:44:31;103017.47;;;-1.20;100.00
62418;BME280;48456;54.242;10.280;2023-02-28T04:46:58;103016.72;;;-1.19;100.00
62418;BME280;48456;54.242;10.280;2023-02-28T04:49:24;103033.72;;;-1.22;100.00
62418;BME280;48456;54.242;10.280;2023-02-28T04:51:50;103032.44;;;-1.27;100.00
62418;BME280;48456;54.242;10.280;2023-02-28T04:54:17;103030.25;;;-1.33;100.00
62418;BME280;48456;54.242;10.280;2023-02-28T04:56:44;103018.84;;;-1.35;100.00
62418;BME280;48456;54.242;10.280;2023-02-28T04:59:10;103022.34;;;-1.35;100.00
62418;BME280;48456;54.242;10.280;2023-02-28T05:01:37;103024.19;;;-1.34;100.00
62418;BME280;48456;54.242;10.280;2023-02-28T05:04:03;103029.13;;;-1.37;100.00
62418;BME280;48456;54.242;10.280;2023-02-28T05:06:31;103029.25;;;-1.35;100.00
62418;BME280;48456;54.242;10.280;2023-02-28T05:08:57;103020.66;;;-1.34;100.00
62418;BME280;48456;54.242;10.280;2023-02-28T05:11:28;103017.28;;;-1.33;100.00
62418;BME280;48456;54.242;10.280;2023-02-28T05:13:56;103017.94;;;-1.36;100.00
62418;BME280;48456;54.242;10.280;2023-02-28T05:16:22;103009.91;;;-1.39;100.00
62418;BME280;48456;54.242;10.280;2023-02-28T05:18:49;103016.53;;;-1.42;100.00
62418;BME280;48456;54.242;10.280;2023-02-28T05:21:21;103014.59;;;-1.45;100.00
62418;BME280;48456;54.242;10.280;2023-02-28T05:23:49;103018.66;;;-1.49;100.00
62418;BME280;48456;54.242;10.280;2023-02-28T05:26:16;103016.88;;;-1.60;100.00
62418;BME280;48456;54.242;10.280;2023-02-28T05:28:42;103025.97;;;-1.76;100.00
62418;BME280;48456;54.242;10.280;2023-02-28T05:31:11;103024.22;;;-1.87;100.00
62418;BME280;48456;54.242;10.280;2023-02-28T05:33:38;103035.34;;;-1.88;100.00
62418;BME280;48456;54.242;10.280;2023-02-28T05:36:05;103040.53;;;-1.88;100.00
62418;BME280;48456;54.242;10.280;2023-02-28T05:38:32;103037.81;;;-1.90;100.00
62418;BME280;48456;54.242;10.280;2023-02-28T05:40:58;103038.09;;;-1.97;100.00
62418;BME280;48456;54.242;10.280;2023-02-28T05:43:25;103037.97;;;-1.99;100.00
62418;BME280;48456;54.242;10.280;2023-02-28T05:45:51;103045.75;;;-1.99;100.00
62418;BME280;48456;54.242;10.280;2023-02-28T05:48:18;103044.19;;;-2.07;100.00
62418;BME280;48456;54.242;10.280;2023-02-28T05:50:44;103047.69;;;-2.17;100.00
62418;BME280;48456;54.242;10.280;2023-02-28T05:53:12;103049.50;;;-2.16;100.00
62418;BME280;48456;54.242;10.280;2023-02-28T05:55:38;103049.78;;;-2.13;100.00
62418;BME280;48456;54.242;10.280;2023-02-28T05:58:05;103061.81;;;-2.13;100.00
62418;BME280;48456;54.242;10.280;2023-02-28T06:00:31;103060.66;;;-2.17;100.00
62418;BME280;48456;54.242;10.280;2023-02-28T06:02:57;103066.63;;;-2.18;100.00
62418;BME280;48456;54.242;10.280;2023-02-28T06:05:27;103067.41;;;-2.19;100.00
62418;BME280;48456;54.242;10.280;2023-02-28T06:07:54;103071.19;;;-2.26;100.00
62418;BME280;48456;54.242;10.280;2023-02-28T06:10:20;103074.38;;;-2.28;100.00
62418;BME280;48456;54.242;10.280;2023-02-28T06:12:46;103068.69;;;-2.35;100.00
62418;BME280;48456;54.242;10.280;2023-02-28T06:15:14;103078.41;;;-2.32;100.00
62418;BME280;48456;54.242;10.280;2023-02-28T06:17:41;103073.34;;;-2.41;100.00
62418;BME280;48456;54.242;10.280;2023-02-28T06:20:08;103076.19;;;-2.48;100.00
62418;BME280;48456;54.242;10.280;2023-02-28T06:22:35;103084.50;;;-2.52;100.00
62418;BME280;48456;54.242;10.280;2023-02-28T06:25:02;103081.75;;;-2.54;100.00
62418;BME280;48456;54.242;10.280;2023-02-28T06:27:30;103082.53;;;-2.55;100.00
62418;BME280;48456;54.242;10.280;2023-02-28T06:29:56;103084.13;;;-2.46;100.00
62418;BME280;48456;54.242;10.280;2023-02-28T06:32:22;103088.78;;;-2.42;100.00
62418;BME280;48456;54.242;10.280;2023-02-28T06:34:49;103086.28;;;-2.41;100.00
62418;BME280;48456;54.242;10.280;2023-02-28T06:37:16;103096.06;;;-2.28;100.00
62418;BME280;48456;54.242;10.280;2023-02-28T06:39:43;103095.13;;;-2.28;100.00
62418;BME280;48456;54.242;10.280;2023-02-28T06:42:09;103101.88;;;-2.20;100.00
62418;BME280;48456;54.242;10.280;2023-02-28T06:44:36;103096.44;;;-2.13;100.00
62418;BME280;48456;54.242;10.280;2023-02-28T06:47:03;103097.22;;;-2.14;100.00
62418;BME280;48456;54.242;10.280;2023-02-28T06:49:30;103095.81;;;-2.10;100.00
62418;BME280;48456;54.242;10.280;2023-02-28T06:51:57;103097.59;;;-2.09;100.00
62418;BME280;48456;54.242;10.280;2023-02-28T06:54:23;103104.25;;;-2.02;100.00
62418;BME280;48456;54.242;10.280;2023-02-28T06:56:50;103099.81;;;-2.03;100.00
62418;BME280;48456;54.242;10.280;2023-02-28T06:59:16;103105.13;;;-2.02;100.00
62418;BME280;48456;54.242;10.280;2023-02-28T07:01:43;103104.50;;;-1.99;100.00
62418;BME280;48456;54.242;10.280;2023-02-28T07:04:09;103111.09;;;-1.92;100.00
62418;BME280;48456;54.242;10.280;2023-02-28T07:06:35;103108.25;;;-1.85;100.00
62418;BME280;48456;54.242;10.280;2023-02-28T07:09:02;103100.22;;;-1.78;100.00
62418;BME280;48456;54.242;10.280;2023-02-28T07:11:30;103104.22;;;-1.71;100.00
62418;BME280;48456;54.242;10.280;2023-02-28T07:13:57;103105.50;;;-1.66;100.00
62418;BME280;48456;54.242;10.280;2023-02-28T07:16:24;103108.72;;;-1.58;100.00
62418;BME280;48456;54.242;10.280;2023-02-28T07:18:54;103099.53;;;-1.54;100.00
62418;BME280;48456;54.242;10.280;2023-02-28T07:21:21;103099.88;;;-1.50;100.00
62418;BME280;48456;54.242;10.280;2023-02-28T07:23:47;103104.81;;;-1.42;100.00
62418;BME280;48456;54.242;10.280;2023-02-28T07:26:14;103100.78;;;-1.39;100.00
62418;BME280;48456;54.242;10.280;2023-02-28T07:28:42;103097.56;;;-1.36;100.00
62418;BME280;48456;54.242;10.280;2023-02-28T07:31:08;103102.44;;;-1.29;100.00
62418;BME280;48456;54.242;10.280;2023-02-28T07:33:36;103090.84;;;-1.22;100.00
62418;BME280;48456;54.242;10.280;2023-02-28T07:36:03;103089.78;;;-1.14;100.00
62418;BME280;48456;54.242;10.280;2023-02-28T07:38:30;103094.16;;;-1.02;100.00
62418;BME280;48456;54.242;10.280;2023-02-28T07:40:57;103091.63;;;-0.90;100.00
62418;BME280;48456;54.242;10.280;2023-02-28T07:43:23;103092.63;;;-0.78;100.00
62418;BME280;48456;54.242;10.280;2023-02-28T07:45:49;103091.53;;;-0.70;100.00
62418;BME280;48456;54.242;10.280;2023-02-28T07:48:16;103096.44;;;-0.62;100.00
62418;BME280;48456;54.242;10.280;2023-02-28T07:50:42;103102.38;;;-0.53;100.00
62418;BME280;48456;54.242;10.280;2023-02-28T07:53:09;103103.44;;;-0.39;100.00
62418;BME280;48456;54.242;10.280;2023-02-28T07:55:35;103102.81;;;-0.24;100.00
62418;BME280;48456;54.242;10.280;2023-02-28T07:58:01;103103.66;;;-0.14;100.00
62418;BME280;48456;54.242;10.280;2023-02-28T08:00:28;103103.81;;;0.00;100.00
62418;BME280;48456;54.242;10.280;2023-02-28T08:02:55;103098.41;;;0.21;100.00
62418;BME280;48456;54.242;10.280;2023-02-28T08:05:21;103098.44;;;0.45;100.00
62418;BME280;48456;54.242;10.280;2023-02-28T08:07:51;103095.63;;;0.66;100.00
62418;BME280;48456;54.242;10.280;2023-02-28T08:10:17;103094.81;;;0.90;100.00
62418;BME280;48456;54.242;10.280;2023-02-28T08:12:44;103092.72;;;1.10;100.00
62418;BME280;48456;54.242;10.280;2023-02-28T08:15:10;103095.53;;;1.25;100.00
62418;BME280;48456;54.242;10.280;2023-02-28T08:17:36;103092.91;;;1.37;100.00
62418;BME280;48456;54.242;10.280;2023-02-28T08:20:03;103102.06;;;1.44;100.00
62418;BME280;48456;54.242;10.280;2023-02-28T08:22:30;103096.38;;;1.50;100.00
62418;BME280;48456;54.242;10.280;2023-02-28T08:24:56;103092.63;;;1.58;100.00
62418;BME280;48456;54.242;10.280;2023-02-28T08:27:22;103099.16;;;1.65;100.00
62418;BME280;48456;54.242;10.280;2023-02-28T08:29:49;103096.25;;;1.74;100.00
62418;BME280;48456;54.242;10.280;2023-02-28T08:32:15;103101.38;;;1.72;100.00
62418;BME280;48456;54.242;10.280;2023-02-28T08:34:55;103101.72;;;1.77;100.00
62418;BME280;48456;54.242;10.280;2023-02-28T08:37:21;103102.34;;;1.86;100.00
62418;BME280;48456;54.242;10.280;2023-02-28T08:39:48;103104.56;;;1.93;100.00
62418;BME280;48456;54.242;10.280;2023-02-28T08:42:14;103098.28;;;2.03;100.00
62418;BME280;48456;54.242;10.280;2023-02-28T08:44:41;103101.28;;;2.10;100.00
62418;BME280;48456;54.242;10.280;2023-02-28T08:47:07;103104.44;;;2.17;100.00
62418;BME280;48456;54.242;10.280;2023-02-28T08:49:33;103096.81;;;2.20;100.00
62418;BME280;48456;54.242;10.280;2023-02-28T08:52:00;103090.50;;;2.30;100.00
62418;BME280;48456;54.242;10.280;2023-02-28T08:54:26;103088.38;;;2.38;100.00
62418;BME280;48456;54.242;10.280;2023-02-28T08:56:55;103087.28;;;2.48;100.00
62418;BME280;48456;54.242;10.280;2023-02-28T08:59:21;103088.59;;;2.55;100.00
62418;BME280;48456;54.242;10.280;2023-02-28T09:01:47;103081.19;;;2.61;100.00
62418;BME280;48456;54.242;10.280;2023-02-28T09:04:14;103088.41;;;2.65;100.00
62418;BME280;48456;54.242;10.280;2023-02-28T09:06:45;103082.16;;;2.77;100.00
62418;BME280;48456;54.242;10.280;2023-02-28T09:09:11;103092.81;;;2.80;100.00
62418;BME280;48456;54.242;10.280;2023-02-28T09:11:38;103085.56;;;2.89;100.00
62418;BME280;48456;54.242;10.280;2023-02-28T09:14:04;103088.88;;;3.00;100.00
62418;BME280;48456;54.242;10.280;2023-02-28T09:16:31;103084.63;;;3.16;100.00
62418;BME280;48456;54.242;10.280;2023-02-28T09:18:59;103092.56;;;3.17;100.00
62418;BME280;48456;54.242;10.280;2023-02-28T09:21:25;103091.66;;;3.17;100.00
62418;BME280;48456;54.242;10.280;2023-02-28T09:23:52;103099.50;;;3.17;100.00
62418;BME280;48456;54.242;10.280;2023-02-28T09:28:45;103113.47;;;3.31;100.00
62418;BME280;48456;54.242;10.280;2023-02-28T09:31:13;103109.25;;;3.33;100.00
62418;BME280;48456;54.242;10.280;2023-02-28T09:33:40;103115.78;;;3.40;100.00
62418;BME280;48456;54.242;10.280;2023-02-28T09:36:07;103112.81;;;3.48;100.00
62418;BME280;48456;54.242;10.280;2023-02-28T09:38:33;103112.28;;;3.54;100.00
62418;BME280;48456;54.242;10.280;2023-02-28T09:41:01;103115.09;;;3.57;100.00
62418;BME280;48456;54.242;10.280;2023-02-28T09:43:30;103117.31;;;3.64;100.00
62418;BME280;48456;54.242;10.280;2023-02-28T09:48:32;103114.13;;;3.70;100.00
62418;BME280;48456;54.242;10.280;2023-02-28T09:51:04;103125.09;;;3.78;100.00
62418;BME280;48456;54.242;10.280;2023-02-28T09:53:32;103119.25;;;3.82;100.00
62418;BME280;48456;54.242;10.280;2023-02-28T09:56:10;103116.34;;;3.93;100.00
62418;BME280;48456;54.242;10.280;2023-02-28T10:03:39;103115.66;;;4.10;100.00
62418;BME280;48456;54.242;10.280;2023-02-28T10:08:36;103124.63;;;4.14;100.00
62418;BME280;48456;54.242;10.280;2023-02-28T10:11:07;103121.72;;;4.24;100.00
62418;BME280;48456;54.242;10.280;2023-02-28T10:13:54;103120.38;;;4.31;100.00
62418;BME280;48456;54.242;10.280;2023-02-28T10:16:32;103118.47;;;4.28;100.00
62418;BME280;48456;54.242;10.280;2023-02-28T10:19:02;103116.03;;;4.32;100.00
62418;BME280;48456;54.242;10.280;2023-02-28T10:21:31;103119.09;;;4.39;100.00
62418;BME280;48456;54.242;10.280;2023-02-28T10:26:45;103117.00;;;4.49;100.00
62418;BME280;48456;54.242;10.280;2023-02-28T10:29:11;103115.75;;;4.57;100.00
62418;BME280;48456;54.242;10.280;2023-02-28T10:31:38;103120.19;;;4.58;100.00
62418;BME280;48456;54.242;10.280;2023-02-28T10:34:04;103120.63;;;4.66;100.00
62418;BME280;48456;54.242;10.280;2023-02-28T10:36:32;103117.06;;;4.80;100.00
62418;BME280;48456;54.242;10.280;2023-02-28T10:41:46;103118.16;;;4.84;100.00
62418;BME280;48456;54.242;10.280;2023-02-28T10:44:21;103112.28;;;4.88;100.00
62418;BME280;48456;54.242;10.280;2023-02-28T10:46:48;103113.69;;;4.98;100.00
62418;BME280;48456;54.242;10.280;2023-02-28T10:49:17;103113.13;;;5.04;100.00
62418;BME280;48456;54.242;10.280;2023-02-28T10:51:45;103118.53;;;5.07;100.00
62418;BME280;48456;54.242;10.280;2023-02-28T10:54:18;103119.28;;;5.04;100.00
62418;BME280;48456;54.242;10.280;2023-02-28T10:56:45;103106.75;;;5.15;100.00
62418;BME280;48456;54.242;10.280;2023-02-28T11:06:45;103095.22;;;5.45;100.00
62418;BME280;48456;54.242;10.280;2023-02-28T11:09:16;103097.72;;;5.58;100.00
62418;BME280;48456;54.242;10.280;2023-02-28T11:11:45;103098.38;;;5.71;100.00
62418;BME280;48456;54.242;10.280;2023-02-28T11:14:20;103096.88;;;5.76;100.00
62418;BME280;48456;54.242;10.280;2023-02-28T11:16:47;103094.81;;;5.87;100.00
62418;BME280;48456;54.242;10.280;2023-02-28T11:19:19;103095.19;;;5.95;100.00
62418;BME280;48456;54.242;10.280;2023-02-28T11:21:48;103086.78;;;6.35;100.00
62418;BME280;48456;54.242;10.280;2023-02-28T11:24:22;103083.09;;;7.84;100.00
62418;BME280;48456;54.242;10.280;2023-02-28T11:26:49;103081.72;;;9.47;100.00
62418;BME280;48456;54.242;10.280;2023-02-28T11:31:43;103071.16;;;11.07;100.00
62418;BME280;48456;54.242;10.280;2023-02-28T11:34:23;103067.38;;;11.60;100.00
62418;BME280;48456;54.242;10.280;2023-02-28T11:36:49;103066.22;;;12.16;100.00
62418;BME280;48456;54.242;10.280;2023-02-28T11:39:16;103066.66;;;12.70;100.00
62418;BME280;48456;54.242;10.280;2023-02-28T11:46:41;103076.94;;;12.94;100.00
62418;BME280;48456;54.242;10.280;2023-02-28T11:52:05;103083.03;;;13.32;88.27
62418;BME280;48456;54.242;10.280;2023-02-28T12:02:20;103067.22;;;14.34;73.09
62418;BME280;48456;54.242;10.280;2023-02-28T12:04:53;103063.91;;;14.49;72.86
62418;BME280;48456;54.242;10.280;2023-02-28T12:10:19;103062.81;;;13.85;71.81
62418;BME280;48456;54.242;10.280;2023-02-28T12:12:56;103056.78;;;13.94;79.68
62418;BME280;48456;54.242;10.280;2023-02-28T12:15:32;103061.69;;;13.70;72.27
62418;BME280;48456;54.242;10.280;2023-02-28T12:18:15;103057.41;;;13.80;81.37
62418;BME280;48456;54.242;10.280;2023-02-28T12:20:59;103056.41;;;13.29;75.15
62418;BME280;48456;54.242;10.280;2023-02-28T12:26:01;103042.25;;;12.86;94.31
62418;BME280;48456;54.242;10.280;2023-02-28T12:28:31;103046.69;;;12.88;88.79
62418;BME280;48456;54.242;10.280;2023-02-28T12:33:46;103029.78;;;13.72;78.00
62418;BME280;48456;54.242;10.280;2023-02-28T12:36:15;103021.50;;;14.06;74.31
62418;BME280;48456;54.242;10.280;2023-02-28T12:38:46;103018.66;;;14.52;64.25
62418;BME280;48456;54.242;10.280;2023-02-28T12:41:17;103023.31;;;14.68;66.22
62418;BME280;48456;54.242;10.280;2023-02-28T12:43:46;103014.63;;;15.55;65.39
62418;BME280;48456;54.242;10.280;2023-02-28T12:46:16;103010.59;;;15.99;56.53
62418;BME280;48456;54.242;10.280;2023-02-28T12:48:48;103004.56;;;15.26;57.57
62418;BME280;48456;54.242;10.280;2023-02-28T12:51:16;103004.22;;;15.83;55.68
62418;BME280;48456;54.242;10.280;2023-02-28T12:58:41;102987.31;;;14.97;56.57
62418;BME280;48456;54.242;10.280;2023-02-28T13:01:33;102987.97;;;15.58;56.39
62418;BME280;48456;54.242;10.280;2023-02-28T13:11:24;102981.00;;;15.72;53.50
62418;BME280;48456;54.242;10.280;2023-02-28T13:14:02;102975.31;;;15.35;53.25
62418;BME280;48456;54.242;10.280;2023-02-28T13:16:46;102987.84;;;15.42;55.94
62418;BME280;48456;54.242;10.280;2023-02-28T13:19:16;102974.47;;;15.39;56.75
62418;BME280;48456;54.242;10.280;2023-02-28T13:21:45;102972.78;;;14.73;55.21
62418;BME280;48456;54.242;10.280;2023-02-28T13:29:40;102981.59;;;14.67;55.68
62418;BME280;48456;54.242;10.280;2023-02-28T13:34:35;102979.25;;;14.91;57.58
62418;BME280;48456;54.242;10.280;2023-02-28T13:42:56;102982.03;;;13.80;58.62
62418;BME280;48456;54.242;10.280;2023-02-28T13:47:43;102982.31;;;13.01;65.07
62418;BME280;48456;54.242;10.280;2023-02-28T13:50:15;102985.13;;;12.67;67.49
62418;BME280;48456;54.242;10.280;2023-02-28T13:52:48;102988.94;;;12.79;68.05
62418;BME280;48456;54.242;10.280;2023-02-28T13:58:10;102977.09;;;12.63;74.84
62418;BME280;48456;54.242;10.280;2023-02-28T14:01:00;102968.97;;;12.16;82.70
62418;BME280;48456;54.242;10.280;2023-02-28T14:06:21;102967.31;;;10.88;100.00
62418;BME280;48456;54.242;10.280;2023-02-28T14:08:57;102964.38;;;10.20;100.00
62418;BME280;48456;54.242;10.280;2023-02-28T14:11:29;102955.13;;;9.54;100.00
62418;BME280;48456;54.242;10.280;2023-02-28T14:13:56;102961.91;;;9.21;100.00
62418;BME280;48456;54.242;10.280;2023-02-28T14:16:23;102967.19;;;8.96;100.00
62418;BME280;48456;54.242;10.280;2023-02-28T14:18:51;102958.94;;;8.87;100.00
62418;BME280;48456;54.242;10.280;2023-02-28T14:21:22;102958.94;;;8.87;100.00
62418;BME280;48456;54.242;10.280;2023-02-28T14:31:40;102958.84;;;9.59;100.00
62418;BME280;48456;54.242;10.280;2023-02-28T14:36:39;102952.88;;;9.92;100.00
62418;BME280;48456;54.242;10.280;2023-02-28T14:39:10;102949.41;;;9.93;100.00
62418;BME280;48456;54.242;10.280;2023-02-28T14:41:38;102949.00;;;10.08;100.00
62418;BME280;48456;54.242;10.280;2023-02-28T14:46:44;102950.59;;;9.75;100.00
62418;BME280;48456;54.242;10.280;2023-02-28T14:49:30;102943.31;;;9.96;100.00
62418;BME280;48456;54.242;10.280;2023-02-28T14:52:17;102937.91;;;10.20;100.00
62418;BME280;48456;54.242;10.280;2023-02-28T14:54:46;102948.06;;;10.63;100.00
62418;BME280;48456;54.242;10.280;2023-02-28T14:57:24;102945.03;;;11.12;100.00